sensor_id;sensor_type;location;lat;lon;timestamp;P1;durP1;ratioP1;P2;durP2;ratioP2
64868;SDS011;51349;52.424;10.840;2023-04-25T00:01:42;6.00;;;4.60;;
64868;SDS011;51349;52.424;10.840;2023-04-25T00:06:43;11.93;;;4.80;;
64868;SDS011;51349;52.424;10.840;2023-04-25T00:11:43;7.70;;;4.63;;
64868;SDS011;51349;52.424;10.840;2023-04-25T00:16:44;6.83;;;4.43;;
64868;SDS011;51349;52.424;10.840;2023-04-25T00:21:45;6.27;;;3.83;;
64868;SDS011;51349;52.424;10.840;2023-04-25T00:26:46;9.07;;;4.67;;
64868;SDS011;51349;52.424;10.840;2023-04-25T00:31:47;6.53;;;4.30;;
64868;SDS011;51349;52.424;10.840;2023-04-25T00:36:48;6.67;;;4.10;;
64868;SDS011;51349;52.424;10.840;2023-04-25T00:41:48;10.97;;;4.23;;
64868;SDS011;51349;52.424;10.840;2023-04-25T00:46:53;9.37;;;4.50;;
64868;SDS011;51349;52.424;10.840;2023-04-25T00:51:54;10.43;;;4.60;;
64868;SDS011;51349;52.424;10.840;2023-04-25T00:56:56;6.63;;;4.80;;
64868;SDS011;51349;52.424;10.840;2023-04-25T01:01:57;6.23;;;4.63;;
64868;SDS011;51349;52.424;10.840;2023-04-25T01:06:58;10.53;;;4.60;;
64868;SDS011;51349;52.424;10.840;2023-04-25T01:11:59;7.77;;;5.10;;
64868;SDS011;51349;52.424;10.840;2023-04-25T01:17:01;8.23;;;5.20;;
64868;SDS011;51349;52.424;10.840;2023-04-25T01:22:01;8.27;;;5.07;;
64868;SDS011;51349;52.424;10.840;2023-04-25T01:27:03;7.70;;;4.80;;
64868;SDS011;51349;52.424;10.840;2023-04-25T01:32:04;7.30;;;5.10;;
64868;SDS011;51349;52.424;10.840;2023-04-25T01:37:06;7.53;;;4.70;;
64868;SDS011;51349;52.424;10.840;2023-04-25T01:42:06;5.40;;;4.90;;
64868;SDS011;51349;52.424;10.840;2023-04-25T01:47:07;7.47;;;5.40;;
64868;SDS011;51349;52.424;10.840;2023-04-25T01:52:08;8.03;;;4.80;;
64868;SDS011;51349;52.424;10.840;2023-04-25T01:57:08;5.60;;;4.80;;
64868;SDS011;51349;52.424;10.840;2023-04-25T02:02:09;7.53;;;4.83;;
64868;SDS011;51349;52.424;10.840;2023-04-25T02:07:10;7.40;;;4.50;;
64868;SDS011;51349;52.424;10.840;2023-04-25T02:12:11;10.97;;;5.07;;
64868;SDS011;51349;52.424;10.840;2023-04-25T02:17:11;8.80;;;5.10;;
64868;SDS011;51349;52.424;10.840;2023-04-25T02:22:13;11.97;;;5.20;;
64868;SDS011;51349;52.424;10.840;2023-04-25T02:27:14;6.97;;;5.33;;
64868;SDS011;51349;52.424;10.840;2023-04-25T02:32:15;8.70;;;5.30;;
64868;SDS011;51349;52.424;10.840;2023-04-25T02:37:15;11.43;;;5.00;;
64868;SDS011;51349;52.424;10.840;2023-04-25T02:42:16;9.73;;;5.13;;
64868;SDS011;51349;52.424;10.840;2023-04-25T02:47:17;8.57;;;5.27;;
64868;SDS011;51349;52.424;10.840;2023-04-25T02:52:17;9.63;;;5.00;;
64868;SDS011;51349;52.424;10.840;2023-04-25T02:57:18;7.73;;;5.37;;
64868;SDS011;51349;52.424;10.840;2023-04-25T03:02:19;10.17;;;5.17;;
64868;SDS011;51349;52.424;10.840;2023-04-25T03:07:19;9.20;;;5.50;;
64868;SDS011;51349;52.424;10.840;2023-04-25T03:12:20;11.00;;;5.40;;
64868;SDS011;51349;52.424;10.840;2023-04-25T03:17:21;9.70;;;5.67;;
64868;SDS011;51349;52.424;10.840;2023-04-25T03:22:21;11.17;;;6.33;;
64868;SDS011;51349;52.424;10.840;2023-04-25T03:27:22;8.73;;;5.60;;
64868;SDS011;51349;52.424;10.840;2023-04-25T03:32:23;10.17;;;5.97;;
64868;SDS011;51349;52.424;10.840;2023-04-25T03:37:23;7.67;;;6.30;;
64868;SDS011;51349;52.424;10.840;2023-04-25T03:42:24;13.07;;;6.20;;
64868;SDS011;51349;52.424;10.840;2023-04-25T03:47:25;12.60;;;6.93;;
64868;SDS011;51349;52.424;10.840;2023-04-25T03:52:25;8.37;;;6.43;;
64868;SDS011;51349;52.424;10.840;2023-04-25T03:57:26;9.87;;;6.03;;
64868;SDS011;51349;52.424;10.840;2023-04-25T04:02:27;16.77;;;8.40;;
64868;SDS011;51349;52.424;10.840;2023-04-25T04:07:27;12.37;;;8.07;;
64868;SDS011;51349;52.424;10.840;2023-04-25T04:12:28;9.07;;;5.20;;
64868;SDS011;51349;52.424;10.840;2023-04-25T04:17:29;11.90;;;4.93;;
64868;SDS011;51349;52.424;10.840;2023-04-25T04:22:30;12.77;;;4.87;;
64868;SDS011;51349;52.424;10.840;2023-04-25T04:27:31;11.87;;;4.83;;
64868;SDS011;51349;52.424;10.840;2023-04-25T04:32:32;8.97;;;3.90;;
64868;SDS011;51349;52.424;10.840;2023-04-25T04:37:34;15.57;;;4.83;;
64868;SDS011;51349;52.424;10.840;2023-04-25T04:42:35;12.47;;;4.10;;
64868;SDS011;51349;52.424;10.840;2023-04-25T04:47:36;13.03;;;4.67;;
64868;SDS011;51349;52.424;10.840;2023-04-25T04:52:37;12.97;;;4.50;;
64868;SDS011;51349;52.424;10.840;2023-04-25T04:57:38;10.37;;;5.07;;
64868;SDS011;51349;52.424;10.840;2023-04-25T05:02:39;21.13;;;6.97;;
64868;SDS011;51349;52.424;10.840;2023-04-25T05:07:40;10.17;;;4.10;;
64868;SDS011;51349;52.424;10.840;2023-04-25T05:12:40;14.90;;;5.20;;
64868;SDS011;51349;52.424;10.840;2023-04-25T05:17:41;16.90;;;7.00;;
64868;SDS011;51349;52.424;10.840;2023-04-25T05:22:41;11.07;;;4.27;;
64868;SDS011;51349;52.424;10.840;2023-04-25T05:27:42;11.47;;;3.67;;
64868;SDS011;51349;52.424;10.840;2023-04-25T05:32:43;11.67;;;4.33;;
64868;SDS011;51349;52.424;10.840;2023-04-25T05:37:43;13.53;;;5.00;;
64868;SDS011;51349;52.424;10.840;2023-04-25T05:42:44;13.20;;;4.67;;
64868;SDS011;51349;52.424;10.840;2023-04-25T05:47:45;11.87;;;3.97;;
64868;SDS011;51349;52.424;10.840;2023-04-25T05:52:45;10.10;;;3.83;;
64868;SDS011;51349;52.424;10.840;2023-04-25T05:57:46;13.27;;;4.27;;
64868;SDS011;51349;52.424;10.840;2023-04-25T06:02:47;15.50;;;4.20;;
64868;SDS011;51349;52.424;10.840;2023-04-25T06:07:47;11.73;;;3.80;;
64868;SDS011;51349;52.424;10.840;2023-04-25T06:12:48;10.63;;;4.20;;
64868;SDS011;51349;52.424;10.840;2023-04-25T06:17:49;11.73;;;3.77;;
64868;SDS011;51349;52.424;10.840;2023-04-25T06:22:50;12.93;;;5.10;;
64868;SDS011;51349;52.424;10.840;2023-04-25T06:27:51;11.53;;;3.67;;
64868;SDS011;51349;52.424;10.840;2023-04-25T06:32:52;15.13;;;4.00;;
64868;SDS011;51349;52.424;10.840;2023-04-25T06:37:53;14.57;;;4.40;;
64868;SDS011;51349;52.424;10.840;2023-04-25T06:42:53;13.57;;;3.50;;
64868;SDS011;51349;52.424;10.840;2023-04-25T06:47:54;9.23;;;3.40;;
64868;SDS011;51349;52.424;10.840;2023-04-25T06:52:55;11.03;;;3.33;;
64868;SDS011;51349;52.424;10.840;2023-04-25T06:57:55;11.70;;;3.57;;
64868;SDS011;51349;52.424;10.840;2023-04-25T07:02:56;9.60;;;3.20;;
64868;SDS011;51349;52.424;10.840;2023-04-25T07:07:57;10.50;;;3.50;;
64868;SDS011;51349;52.424;10.840;2023-04-25T07:12:57;7.63;;;3.00;;
64868;SDS011;51349;52.424;10.840;2023-04-25T07:17:58;10.43;;;3.87;;
64868;SDS011;51349;52.424;10.840;2023-04-25T07:22:59;7.17;;;2.40;;
64868;SDS011;51349;52.424;10.840;2023-04-25T07:28:00;10.63;;;3.30;;
64868;SDS011;51349;52.424;10.840;2023-04-25T07:33:00;9.73;;;3.03;;
64868;SDS011;51349;52.424;10.840;2023-04-25T07:38:02;12.10;;;3.00;;
64868;SDS011;51349;52.424;10.840;2023-04-25T07:43:03;7.70;;;2.83;;
64868;SDS011;51349;52.424;10.840;2023-04-25T07:48:03;9.30;;;2.83;;
64868;SDS011;51349;52.424;10.840;2023-04-25T07:53:04;6.03;;;2.20;;
64868;SDS011;51349;52.424;10.840;2023-04-25T07:58:08;7.77;;;2.80;;
64868;SDS011;51349;52.424;10.840;2023-04-25T08:03:09;5.80;;;2.37;;
64868;SDS011;51349;52.424;10.840;2023-04-25T08:08:10;6.93;;;2.97;;
64868;SDS011;51349;52.424;10.840;2023-04-25T08:13:10;11.57;;;2.90;;
64868;SDS011;51349;52.424;10.840;2023-04-25T08:18:11;9.30;;;2.50;;
64868;SDS011;51349;52.424;10.840;2023-04-25T08:23:12;8.47;;;2.57;;
64868;SDS011;51349;52.424;10.840;2023-04-25T08:28:13;7.80;;;2.38;;
64868;SDS011;51349;52.424;10.840;2023-04-25T08:33:15;7.37;;;2.90;;
64868;SDS011;51349;52.424;10.840;2023-04-25T08:38:15;7.43;;;2.70;;
64868;SDS011;51349;52.424;10.840;2023-04-25T08:43:18;7.43;;;2.90;;
64868;SDS011;51349;52.424;10.840;2023-04-25T08:48:19;8.60;;;3.10;;
64868;SDS011;51349;52.424;10.840;2023-04-25T08:53:30;12.40;;;2.85;;
64868;SDS011;51349;52.424;10.840;2023-04-25T08:58:32;9.37;;;2.70;;
64868;SDS011;51349;52.424;10.840;2023-04-25T09:03:33;8.25;;;2.63;;
64868;SDS011;51349;52.424;10.840;2023-04-25T09:08:36;10.75;;;3.17;;
64868;SDS011;51349;52.424;10.840;2023-04-25T09:13:37;4.53;;;2.40;;
64868;SDS011;51349;52.424;10.840;2023-04-25T09:18:38;8.80;;;2.70;;
64868;SDS011;51349;52.424;10.840;2023-04-25T09:23:48;6.00;;;2.30;;
64868;SDS011;51349;52.424;10.840;2023-04-25T09:28:49;5.85;;;2.75;;
64868;SDS011;51349;52.424;10.840;2023-04-25T09:34:07;4.40;;;2.20;;
64868;SDS011;51349;52.424;10.840;2023-04-25T09:39:12;5.30;;;2.25;;
64868;SDS011;51349;52.424;10.840;2023-04-25T09:44:19;3.63;;;2.03;;
64868;SDS011;51349;52.424;10.840;2023-04-25T09:49:25;4.45;;;2.30;;
64868;SDS011;51349;52.424;10.840;2023-04-25T09:54:27;3.13;;;2.00;;
64868;SDS011;51349;52.424;10.840;2023-04-25T09:59:28;4.03;;;2.08;;
64868;SDS011;51349;52.424;10.840;2023-04-25T10:04:31;5.32;;;2.13;;
64868;SDS011;51349;52.424;10.840;2023-04-25T10:09:36;6.68;;;2.60;;
64868;SDS011;51349;52.424;10.840;2023-04-25T10:14:39;4.03;;;2.20;;
64868;SDS011;51349;52.424;10.840;2023-04-25T10:19:40;4.35;;;2.20;;
64868;SDS011;51349;52.424;10.840;2023-04-25T10:24:41;7.15;;;2.50;;
64868;SDS011;51349;52.424;10.840;2023-04-25T10:29:43;3.70;;;2.22;;
64868;SDS011;51349;52.424;10.840;2023-04-25T10:34:44;3.30;;;2.13;;
64868;SDS011;51349;52.424;10.840;2023-04-25T10:39:48;2.42;;;2.00;;
64868;SDS011;51349;52.424;10.840;2023-04-25T10:45:02;4.22;;;2.05;;
64868;SDS011;51349;52.424;10.840;2023-04-25T10:50:06;4.32;;;2.38;;
64868;SDS011;51349;52.424;10.840;2023-04-25T10:55:08;3.38;;;2.00;;
64868;SDS011;51349;52.424;10.840;2023-04-25T11:05:16;4.55;;;2.13;;
64868;SDS011;51349;52.424;10.840;2023-04-25T11:10:28;2.15;;;1.88;;
64868;SDS011;51349;52.424;10.840;2023-04-25T11:15:30;2.38;;;2.13;;
64868;SDS011;51349;52.424;10.840;2023-04-25T11:20:31;2.85;;;2.20;;
64868;SDS011;51349;52.424;10.840;2023-04-25T11:25:31;4.03;;;1.88;;
64868;SDS011;51349;52.424;10.840;2023-04-25T11:30:32;2.47;;;1.55;;
64868;SDS011;51349;52.424;10.840;2023-04-25T11:35:33;2.75;;;2.10;;
64868;SDS011;51349;52.424;10.840;2023-04-25T11:40:34;3.33;;;2.40;;
64868;SDS011;51349;52.424;10.840;2023-04-25T11:45:36;4.72;;;1.92;;
64868;SDS011;51349;52.424;10.840;2023-04-25T11:50:38;6.85;;;2.25;;
64868;SDS011;51349;52.424;10.840;2023-04-25T11:55:39;5.88;;;2.20;;
64868;SDS011;51349;52.424;10.840;2023-04-25T12:00:41;2.83;;;1.85;;
64868;SDS011;51349;52.424;10.840;2023-04-25T12:05:43;3.83;;;1.70;;
64868;SDS011;51349;52.424;10.840;2023-04-25T12:10:45;3.38;;;1.85;;
64868;SDS011;51349;52.424;10.840;2023-04-25T12:15:47;4.13;;;1.67;;
64868;SDS011;51349;52.424;10.840;2023-04-25T12:20:48;2.83;;;1.77;;
64868;SDS011;51349;52.424;10.840;2023-04-25T12:25:48;2.67;;;1.60;;
64868;SDS011;51349;52.424;10.840;2023-04-25T12:30:57;2.58;;;1.50;;
64868;SDS011;51349;52.424;10.840;2023-04-25T12:36:03;2.35;;;1.50;;
64868;SDS011;51349;52.424;10.840;2023-04-25T12:41:08;2.97;;;1.52;;
64868;SDS011;51349;52.424;10.840;2023-04-25T12:46:10;4.88;;;1.30;;
64868;SDS011;51349;52.424;10.840;2023-04-25T12:51:10;3.70;;;1.67;;
64868;SDS011;51349;52.424;10.840;2023-04-25T12:56:11;2.53;;;1.50;;
64868;SDS011;51349;52.424;10.840;2023-04-25T13:01:12;1.50;;;1.40;;
64868;SDS011;51349;52.424;10.840;2023-04-25T13:06:14;2.10;;;1.50;;
64868;SDS011;51349;52.424;10.840;2023-04-25T13:11:15;2.63;;;1.50;;
64868;SDS011;51349;52.424;10.840;2023-04-25T13:16:18;3.63;;;1.38;;
64868;SDS011;51349;52.424;10.840;2023-04-25T13:21:20;2.38;;;1.48;;
64868;SDS011;51349;52.424;10.840;2023-04-25T13:26:21;2.20;;;1.83;;
64868;SDS011;51349;52.424;10.840;2023-04-25T13:31:22;3.38;;;1.45;;
64868;SDS011;51349;52.424;10.840;2023-04-25T13:36:22;3.40;;;1.70;;
64868;SDS011;51349;52.424;10.840;2023-04-25T13:41:24;2.53;;;1.30;;
64868;SDS011;51349;52.424;10.840;2023-04-25T13:46:24;3.47;;;1.17;;
64868;SDS011;51349;52.424;10.840;2023-04-25T13:51:25;3.20;;;1.38;;
64868;SDS011;51349;52.424;10.840;2023-04-25T13:56:26;2.40;;;1.27;;
64868;SDS011;51349;52.424;10.840;2023-04-25T14:01:26;3.53;;;1.30;;
64868;SDS011;51349;52.424;10.840;2023-04-25T14:06:28;1.85;;;1.15;;
64868;SDS011;51349;52.424;10.840;2023-04-25T14:11:28;2.17;;;1.30;;
64868;SDS011;51349;52.424;10.840;2023-04-25T14:16:29;2.35;;;1.20;;
64868;SDS011;51349;52.424;10.840;2023-04-25T14:21:31;3.67;;;1.35;;
64868;SDS011;51349;52.424;10.840;2023-04-25T14:26:35;2.65;;;1.10;;
64868;SDS011;51349;52.424;10.840;2023-04-25T14:31:37;2.83;;;1.23;;
64868;SDS011;51349;52.424;10.840;2023-04-25T14:36:39;1.65;;;1.00;;
64868;SDS011;51349;52.424;10.840;2023-04-25T14:41:40;1.88;;;1.27;;
64868;SDS011;51349;52.424;10.840;2023-04-25T14:46:40;2.10;;;1.20;;
64868;SDS011;51349;52.424;10.840;2023-04-25T14:51:41;1.27;;;1.17;;
64868;SDS011;51349;52.424;10.840;2023-04-25T14:56:42;1.75;;;1.10;;
64868;SDS011;51349;52.424;10.840;2023-04-25T15:01:42;2.47;;;1.10;;
64868;SDS011;51349;52.424;10.840;2023-04-25T15:06:43;2.10;;;1.30;;
64868;SDS011;51349;52.424;10.840;2023-04-25T15:11:44;1.95;;;1.30;;
64868;SDS011;51349;52.424;10.840;2023-04-25T15:16:45;1.70;;;1.10;;
64868;SDS011;51349;52.424;10.840;2023-04-25T15:21:46;2.80;;;1.13;;
64868;SDS011;51349;52.424;10.840;2023-04-25T15:26:47;1.42;;;1.00;;
64868;SDS011;51349;52.424;10.840;2023-04-25T15:31:48;4.32;;;1.40;;
64868;SDS011;51349;52.424;10.840;2023-04-25T15:36:48;2.08;;;1.10;;
64868;SDS011;51349;52.424;10.840;2023-04-25T15:41:49;1.70;;;0.98;;
64868;SDS011;51349;52.424;10.840;2023-04-25T15:46:49;2.63;;;1.20;;
64868;SDS011;51349;52.424;10.840;2023-04-25T15:51:50;1.98;;;1.45;;
64868;SDS011;51349;52.424;10.840;2023-04-25T15:56:51;3.80;;;1.30;;
64868;SDS011;51349;52.424;10.840;2023-04-25T16:01:51;2.78;;;1.58;;
64868;SDS011;51349;52.424;10.840;2023-04-25T16:06:52;2.30;;;1.40;;
64868;SDS011;51349;52.424;10.840;2023-04-25T16:11:53;1.73;;;1.20;;
64868;SDS011;51349;52.424;10.840;2023-04-25T16:16:54;2.67;;;1.48;;
64868;SDS011;51349;52.424;10.840;2023-04-25T16:21:55;2.28;;;1.50;;
64868;SDS011;51349;52.424;10.840;2023-04-25T16:26:55;1.40;;;1.30;;
64868;SDS011;51349;52.424;10.840;2023-04-25T16:31:56;1.42;;;1.30;;
64868;SDS011;51349;52.424;10.840;2023-04-25T16:36:58;3.70;;;1.40;;
64868;SDS011;51349;52.424;10.840;2023-04-25T16:41:58;2.55;;;1.42;;
64868;SDS011;51349;52.424;10.840;2023-04-25T16:46:59;2.67;;;1.70;;
64868;SDS011;51349;52.424;10.840;2023-04-25T16:52:00;2.85;;;1.50;;
64868;SDS011;51349;52.424;10.840;2023-04-25T16:57:01;2.13;;;1.77;;
64868;SDS011;51349;52.424;10.840;2023-04-25T17:02:03;2.25;;;1.88;;
64868;SDS011;51349;52.424;10.840;2023-04-25T17:07:04;3.28;;;1.40;;
64868;SDS011;51349;52.424;10.840;2023-04-25T17:12:05;3.00;;;1.52;;
64868;SDS011;51349;52.424;10.840;2023-04-25T17:17:07;4.07;;;1.25;;
64868;SDS011;51349;52.424;10.840;2023-04-25T17:22:07;1.45;;;1.10;;
64868;SDS011;51349;52.424;10.840;2023-04-25T17:27:09;1.52;;;1.23;;
64868;SDS011;51349;52.424;10.840;2023-04-25T17:32:10;2.58;;;1.30;;
64868;SDS011;51349;52.424;10.840;2023-04-25T17:37:11;3.88;;;1.48;;
64868;SDS011;51349;52.424;10.840;2023-04-25T17:42:15;2.92;;;1.50;;
64868;SDS011;51349;52.424;10.840;2023-04-25T17:47:15;3.92;;;2.10;;
64868;SDS011;51349;52.424;10.840;2023-04-25T17:52:16;2.97;;;2.03;;
64868;SDS011;51349;52.424;10.840;2023-04-25T17:57:17;3.67;;;1.67;;
64868;SDS011;51349;52.424;10.840;2023-04-25T18:02:18;4.28;;;1.50;;
64868;SDS011;51349;52.424;10.840;2023-04-25T18:07:19;4.45;;;1.73;;
64868;SDS011;51349;52.424;10.840;2023-04-25T18:12:20;2.70;;;1.70;;
64868;SDS011;51349;52.424;10.840;2023-04-25T18:17:20;3.83;;;2.08;;
64868;SDS011;51349;52.424;10.840;2023-04-25T18:22:24;3.80;;;2.50;;
64868;SDS011;51349;52.424;10.840;2023-04-25T18:27:25;4.82;;;2.40;;
64868;SDS011;51349;52.424;10.840;2023-04-25T18:32:26;4.97;;;2.40;;
64868;SDS011;51349;52.424;10.840;2023-04-25T18:37:30;4.03;;;2.57;;
64868;SDS011;51349;52.424;10.840;2023-04-25T18:42:31;4.47;;;2.30;;
64868;SDS011;51349;52.424;10.840;2023-04-25T18:47:32;6.40;;;2.80;;
64868;SDS011;51349;52.424;10.840;2023-04-25T18:52:33;2.60;;;2.00;;
64868;SDS011;51349;52.424;10.840;2023-04-25T18:57:34;3.80;;;2.30;;
64868;SDS011;51349;52.424;10.840;2023-04-25T19:02:35;5.57;;;2.20;;
64868;SDS011;51349;52.424;10.840;2023-04-25T19:07:36;3.63;;;1.83;;
64868;SDS011;51349;52.424;10.840;2023-04-25T19:12:37;5.43;;;2.67;;
64868;SDS011;51349;52.424;10.840;2023-04-25T19:17:37;2.43;;;1.60;;
64868;SDS011;51349;52.424;10.840;2023-04-25T19:22:38;2.20;;;1.70;;
64868;SDS011;51349;52.424;10.840;2023-04-25T19:27:39;4.13;;;2.10;;
64868;SDS011;51349;52.424;10.840;2023-04-25T19:32:40;2.00;;;1.80;;
64868;SDS011;51349;52.424;10.840;2023-04-25T19:37:40;3.00;;;1.70;;
64868;SDS011;51349;52.424;10.840;2023-04-25T19:42:45;6.30;;;1.63;;
64868;SDS011;51349;52.424;10.840;2023-04-25T19:47:45;2.87;;;1.50;;
64868;SDS011;51349;52.424;10.840;2023-04-25T19:52:47;5.47;;;1.50;;
64868;SDS011;51349;52.424;10.840;2023-04-25T19:57:47;2.47;;;1.73;;
64868;SDS011;51349;52.424;10.840;2023-04-25T20:02:48;3.50;;;1.63;;
64868;SDS011;51349;52.424;10.840;2023-04-25T20:07:49;2.23;;;1.90;;
64868;SDS011;51349;52.424;10.840;2023-04-25T20:12:49;2.87;;;2.00;;
64868;SDS011;51349;52.424;10.840;2023-04-25T20:17:50;3.03;;;2.27;;
64868;SDS011;51349;52.424;10.840;2023-04-25T20:22:51;4.43;;;2.40;;
64868;SDS011;51349;52.424;10.840;2023-04-25T20:27:53;5.90;;;2.00;;
64868;SDS011;51349;52.424;10.840;2023-04-25T20:32:53;2.83;;;2.13;;
64868;SDS011;51349;52.424;10.840;2023-04-25T20:37:54;4.50;;;1.90;;
64868;SDS011;51349;52.424;10.840;2023-04-25T20:42:55;5.87;;;2.20;;
64868;SDS011;51349;52.424;10.840;2023-04-25T20:47:55;5.03;;;2.10;;
64868;SDS011;51349;52.424;10.840;2023-04-25T20:52:56;3.67;;;2.07;;
64868;SDS011;51349;52.424;10.840;2023-04-25T20:57:57;3.87;;;1.90;;
64868;SDS011;51349;52.424;10.840;2023-04-25T21:02:58;6.30;;;2.10;;
64868;SDS011;51349;52.424;10.840;2023-04-25T21:08:01;3.17;;;1.87;;
64868;SDS011;51349;52.424;10.840;2023-04-25T21:13:02;3.23;;;2.20;;
64868;SDS011;51349;52.424;10.840;2023-04-25T21:18:04;3.30;;;1.87;;
64868;SDS011;51349;52.424;10.840;2023-04-25T21:23:05;3.97;;;2.30;;
64868;SDS011;51349;52.424;10.840;2023-04-25T21:28:07;6.67;;;2.40;;
64868;SDS011;51349;52.424;10.840;2023-04-25T21:33:07;2.40;;;1.80;;
64868;SDS011;51349;52.424;10.840;2023-04-25T21:38:08;3.17;;;2.00;;
64868;SDS011;51349;52.424;10.840;2023-04-25T21:43:09;8.13;;;2.20;;
64868;SDS011;51349;52.424;10.840;2023-04-25T21:48:10;3.43;;;2.00;;
64868;SDS011;51349;52.424;10.840;2023-04-25T21:53:10;4.30;;;2.07;;
64868;SDS011;51349;52.424;10.840;2023-04-25T21:58:11;4.17;;;1.90;;
64868;SDS011;51349;52.424;10.840;2023-04-25T22:03:12;2.63;;;1.97;;
64868;SDS011;51349;52.424;10.840;2023-04-25T22:08:14;3.07;;;2.00;;
64868;SDS011;51349;52.424;10.840;2023-04-25T22:13:15;7.10;;;2.13;;
64868;SDS011;51349;52.424;10.840;2023-04-25T22:18:16;3.40;;;1.77;;
64868;SDS011;51349;52.424;10.840;2023-04-25T22:23:18;4.87;;;2.00;;
64868;SDS011;51349;52.424;10.840;2023-04-25T22:28:19;4.70;;;2.03;;
64868;SDS011;51349;52.424;10.840;2023-04-25T22:33:20;5.07;;;1.80;;
64868;SDS011;51349;52.424;10.840;2023-04-25T22:38:21;3.83;;;2.00;;
64868;SDS011;51349;52.424;10.840;2023-04-25T22:43:22;6.43;;;2.20;;
64868;SDS011;51349;52.424;10.840;2023-04-25T22:48:23;5.10;;;1.80;;
64868;SDS011;51349;52.424;10.840;2023-04-25T22:53:24;3.80;;;1.93;;
64868;SDS011;51349;52.424;10.840;2023-04-25T22:58:24;3.43;;;1.40;;
64868;SDS011;51349;52.424;10.840;2023-04-25T23:03:25;4.50;;;1.70;;
64868;SDS011;51349;52.424;10.840;2023-04-25T23:08:26;3.00;;;1.90;;
64868;SDS011;51349;52.424;10.840;2023-04-25T23:13:27;4.87;;;1.70;;
64868;SDS011;51349;52.424;10.840;2023-04-25T23:18:27;5.83;;;1.73;;
64868;SDS011;51349;52.424;10.840;2023-04-25T23:23:28;5.20;;;2.00;;
64868;SDS011;51349;52.424;10.840;2023-04-25T23:28:29;4.67;;;1.90;;
64868;SDS011;51349;52.424;10.840;2023-04-25T23:33:30;3.23;;;1.87;;
64868;SDS011;51349;52.424;10.840;2023-04-25T23:38:31;4.10;;;1.70;;
64868;SDS011;51349;52.424;10.840;2023-04-25T23:43:32;5.40;;;2.20;;
64868;SDS011;51349;52.424;10.840;2023-04-25T23:48:32;8.17;;;1.83;;
64868;SDS011;51349;52.424;10.840;2023-04-25T23:53:33;4.73;;;1.60;;
64868;SDS011;51349;52.424;10.840;2023-04-25T23:58:33;5.80;;;1.63;;
